Time;durP1;ratioP1;P1;durP2;ratioP2;P2;SDS_P1;SDS_P2;PMS_P1;PMS_P2;Temp;Humidity;BMP_temperature;BMP_pressure;BME280_temperature;BME280_humidity;BME280_pressure;Samples;Min_cycle;Max_cycle;Signal;HPM_P1;HPM_P2
2022/07/08 00:01:17;;;;;;;3.03;2.38;;;13.70;58.20;;;;;;4991984;28;20666;-44
2022/07/08 00:03:48;;;;;;;2.33;2.13;;;13.70;58.20;;;;;;4991597;28;20213;-45
2022/07/08 00:06:18;;;;;;;2.40;2.20;;;13.70;58.30;;;;;;4976601;28;20190;-43
2022/07/08 00:08:49;;;;;;;2.33;2.13;;;13.70;58.30;;;;;;4989632;28;20205;-42
2022/07/08 00:11:20;;;;;;;2.80;2.30;;;13.70;58.20;;;;;;4992124;28;20208;-43
2022/07/08 00:13:52;;;;;;;3.80;2.20;;;13.70;58.30;;;;;;4989944;28;20216;-43
2022/07/08 00:16:23;;;;;;;2.38;2.15;;;13.80;58.40;;;;;;4963924;28;20225;-44
2022/07/08 00:18:54;;;;;;;2.03;1.83;;;13.80;58.40;;;;;;4969898;28;20203;-44
2022/07/08 00:21:24;;;;;;;2.50;2.03;;;13.80;58.30;;;;;;4953688;28;20198;-43
2022/07/08 00:23:55;;;;;;;2.42;1.83;;;13.80;58.30;;;;;;4986062;28;20197;-44
2022/07/08 00:26:26;;;;;;;3.03;2.40;;;13.90;58.40;;;;;;4992095;28;20197;-44
2022/07/08 00:28:58;;;;;;;2.92;2.22;;;13.90;58.30;;;;;;4991046;28;20194;-44
2022/07/08 00:31:29;;;;;;;3.05;2.50;;;13.90;58.30;;;;;;4992414;28;20209;-44
2022/07/08 00:34:00;;;;;;;2.47;2.25;;;13.90;58.40;;;;;;4991754;28;20256;-43
2022/07/08 00:36:31;;;;;;;2.35;2.15;;;13.90;58.40;;;;;;4990821;28;21605;-43
2022/07/08 00:39:02;;;;;;;2.38;2.10;;;13.90;58.50;;;;;;4962227;28;20290;-44
2022/07/08 00:41:33;;;;;;;2.70;1.98;;;13.90;58.50;;;;;;4952429;29;20295;-44
2022/07/08 00:44:06;;;;;;;3.47;2.45;;;13.80;58.60;;;;;;4986686;28;20665;-43
2022/07/08 00:46:37;;;;;;;2.55;2.10;;;13.90;58.70;;;;;;4986813;28;20261;-43
2022/07/08 00:49:08;;;;;;;2.58;2.10;;;13.90;58.70;;;;;;4987152;28;20202;-43
2022/07/08 00:51:40;;;;;;;3.10;1.88;;;13.90;58.70;;;;;;4991113;28;20197;-44
2022/07/08 00:54:15;;;;;;;2.47;2.13;;;13.90;58.80;;;;;;4991625;28;20193;-43
2022/07/08 00:56:45;;;;;;;3.05;2.30;;;13.90;58.80;;;;;;4955521;28;20317;-44
2022/07/08 00:59:19;;;;;;;2.65;1.90;;;13.90;58.70;;;;;;4987792;28;20241;-43
2022/07/08 01:01:49;;;;;;;2.28;1.83;;;13.90;58.60;;;;;;4990725;28;20217;-44
2022/07/08 01:04:20;;;;;;;2.20;2.00;;;13.90;58.50;;;;;;4991353;28;20193;-44
2022/07/08 01:06:51;;;;;;;2.33;2.03;;;14.00;58.50;;;;;;4990940;28;20206;-43
2022/07/08 01:09:21;;;;;;;2.38;2.08;;;14.00;58.40;;;;;;4990861;28;20209;-44
2022/07/08 01:11:52;;;;;;;2.05;1.85;;;14.00;58.40;;;;;;4991388;28;20225;-43
2022/07/08 01:14:25;;;;;;;2.30;2.05;;;14.00;58.40;;;;;;4990149;28;20208;-43
2022/07/08 01:16:55;;;;;;;2.20;2.00;;;14.10;58.40;;;;;;4985344;28;20242;-44
2022/07/08 01:19:26;;;;;;;2.22;1.98;;;14.10;58.40;;;;;;4988003;28;20200;-44
2022/07/08 01:21:59;;;;;;;2.15;1.90;;;14.10;58.40;;;;;;4991312;28;20244;-43
2022/07/08 01:24:29;;;;;;;2.33;2.10;;;14.10;58.50;;;;;;4990396;28;20194;-44
2022/07/08 01:27:00;;;;;;;2.72;2.20;;;14.00;58.60;;;;;;4991288;28;20398;-43
2022/07/08 01:29:31;;;;;;;3.92;2.30;;;14.00;58.70;;;;;;4991429;28;20649;-43
2022/07/08 01:32:04;;;;;;;1.80;1.70;;;14.10;58.80;;;;;;4990695;28;20712;-43
2022/07/08 01:34:34;;;;;;;2.30;2.10;;;14.10;58.90;;;;;;4990162;28;20201;-43
2022/07/08 01:37:07;;;;;;;2.63;2.00;;;14.10;58.90;;;;;;4991391;28;20229;-43
2022/07/08 01:39:38;;;;;;;2.15;1.95;;;14.10;59.00;;;;;;4990587;28;20193;-43
2022/07/08 01:42:09;;;;;;;2.00;1.80;;;14.10;59.00;;;;;;4990645;28;20221;-43
2022/07/08 01:44:39;;;;;;;2.10;1.90;;;14.10;58.90;;;;;;4991424;28;20201;-42
2022/07/08 01:47:10;;;;;;;2.30;2.10;;;14.10;58.70;;;;;;4976728;28;20861;-44
2022/07/08 01:49:41;;;;;;;2.55;1.90;;;14.20;58.70;;;;;;4991664;28;21279;-44
2022/07/08 01:52:13;;;;;;;2.50;2.03;;;14.20;58.60;;;;;;4994152;28;20236;-43
2022/07/08 01:54:44;;;;;;;2.30;1.92;;;14.20;58.60;;;;;;4993597;28;20559;-43
2022/07/08 01:57:18;;;;;;;2.13;1.80;;;14.20;58.50;;;;;;4994288;28;20229;-44
2022/07/08 01:59:50;;;;;;;1.63;1.52;;;14.20;58.50;;;;;;4985483;28;20193;-43
2022/07/08 02:02:23;;;;;;;2.10;1.90;;;14.20;58.50;;;;;;4974794;28;20225;-44
2022/07/08 02:04:53;;;;;;;2.63;1.80;;;14.30;58.60;;;;;;4994250;28;20197;-44
2022/07/08 02:07:26;;;;;;;2.00;1.80;;;14.30;58.70;;;;;;4994849;28;20665;-43
2022/07/08 02:09:57;;;;;;;2.10;1.63;;;14.30;58.70;;;;;;4994322;28;20685;-43
2022/07/08 02:12:26;;;;;;;2.03;1.83;;;14.30;58.70;;;;;;4994429;28;20303;-44
2022/07/08 02:15:01;;;;;;;2.70;1.92;;;14.30;58.80;;;;;;4993460;28;20189;-43
2022/07/08 02:17:33;;;;;;;2.10;1.90;;;14.30;58.80;;;;;;4978318;28;20320;-44
2022/07/08 02:20:04;;;;;;;2.47;1.92;;;14.30;58.90;;;;;;4968952;28;20195;-43
2022/07/08 02:22:37;;;;;;;2.92;2.00;;;14.30;58.90;;;;;;4974744;28;20257;-43
2022/07/08 02:25:09;;;;;;;2.17;1.95;;;14.30;58.90;;;;;;4974993;28;20198;-43
2022/07/08 02:27:40;;;;;;;2.00;1.70;;;14.30;58.80;;;;;;4974899;28;20194;-43
2022/07/08 02:30:12;;;;;;;2.20;2.00;;;14.30;58.80;;;;;;4974764;28;20553;-45
2022/07/08 02:32:42;;;;;;;2.28;1.90;;;14.30;58.70;;;;;;4974340;28;20218;-44
2022/07/08 02:35:13;;;;;;;2.03;1.75;;;14.30;58.60;;;;;;4974238;28;20202;-42
2022/07/08 02:37:45;;;;;;;2.10;1.88;;;14.40;58.60;;;;;;4990349;28;20312;-44
2022/07/08 02:40:16;;;;;;;1.88;1.63;;;14.40;58.60;;;;;;4955458;28;20198;-43
2022/07/08 02:42:47;;;;;;;2.55;1.90;;;14.40;58.60;;;;;;4955041;28;20222;-43
2022/07/08 02:45:18;;;;;;;1.90;1.80;;;14.40;58.50;;;;;;4957821;28;20678;-43
2022/07/08 02:47:48;;;;;;;2.42;1.90;;;14.50;58.60;;;;;;4958229;28;20210;-45
2022/07/08 02:50:19;;;;;;;2.35;2.00;;;14.50;58.70;;;;;;4994221;28;20201;-43
2022/07/08 02:52:52;;;;;;;2.03;1.60;;;14.50;58.70;;;;;;4973053;28;20699;-43
2022/07/08 02:55:22;;;;;;;2.92;1.98;;;14.50;58.70;;;;;;4955099;28;20205;-44
2022/07/08 02:57:53;;;;;;;3.28;2.13;;;14.50;58.80;;;;;;4955164;28;20230;-44
2022/07/08 03:00:24;;;;;;;2.72;2.00;;;14.50;58.80;;;;;;4953350;28;20210;-44
2022/07/08 03:02:55;;;;;;;2.78;2.22;;;14.50;58.90;;;;;;4955185;28;20223;-43
2022/07/08 03:05:25;;;;;;;2.75;2.25;;;14.50;58.90;;;;;;4954612;28;20202;-44
2022/07/08 03:07:58;;;;;;;2.60;2.03;;;14.50;58.90;;;;;;4954314;28;20617;-43
2022/07/08 03:10:29;;;;;;;3.03;2.15;;;14.50;59.00;;;;;;4954771;28;20207;-44
2022/07/08 03:12:59;;;;;;;2.20;1.98;;;14.60;59.10;;;;;;4954741;28;20230;-44
2022/07/08 03:15:30;;;;;;;2.63;2.13;;;14.60;59.00;;;;;;4954689;28;20202;-45
2022/07/08 03:18:01;;;;;;;2.92;2.33;;;14.60;58.90;;;;;;4954774;28;20230;-44
2022/07/08 03:20:32;;;;;;;2.97;2.20;;;14.60;58.80;;;;;;4954283;28;20195;-43
2022/07/08 03:23:04;;;;;;;3.05;2.28;;;14.60;58.70;;;;;;4953696;28;20219;-44
2022/07/08 03:25:35;;;;;;;3.03;2.30;;;14.60;58.70;;;;;;4953429;28;20674;-44
2022/07/08 03:28:06;;;;;;;2.22;1.92;;;14.60;58.60;;;;;;4954242;28;20202;-44
2022/07/08 03:30:37;;;;;;;2.17;1.98;;;14.70;58.70;;;;;;4954695;28;20206;-43
2022/07/08 03:33:08;;;;;;;2.22;2.03;;;14.70;58.70;;;;;;4954036;28;20573;-44
2022/07/08 03:35:38;;;;;;;2.38;2.08;;;14.70;58.70;;;;;;4954667;28;20206;-44
2022/07/08 03:38:11;;;;;;;2.85;2.15;;;14.70;58.70;;;;;;4954133;28;20233;-44
2022/07/08 03:43:28;;;;;;;2.90;2.20;;;14.70;58.90;;;;;;4958340;28;20632;-43
2022/07/08 03:45:59;;;;;;;2.72;2.13;;;14.70;58.90;;;;;;4992567;28;20205;-44
2022/07/08 03:48:29;;;;;;;2.80;2.17;;;14.70;58.90;;;;;;4962343;28;20207;-44
2022/07/08 03:51:01;;;;;;;2.55;1.95;;;14.80;59.00;;;;;;4992190;28;20224;-43
2022/07/08 03:53:34;;;;;;;2.88;2.33;;;14.80;59.00;;;;;;4991603;28;20220;-44
2022/07/08 03:56:05;;;;;;;2.80;2.05;;;14.80;59.10;;;;;;4992321;28;20217;-43
2022/07/08 03:58:36;;;;;;;2.60;1.85;;;14.80;59.00;;;;;;4991881;28;20231;-45
2022/07/08 04:01:07;;;;;;;2.00;1.80;;;14.80;59.00;;;;;;4990905;28;20209;-44
2022/07/08 04:03:38;;;;;;;3.33;2.35;;;14.80;58.90;;;;;;4992280;28;20229;-45
2022/07/08 04:06:09;;;;;;;2.65;2.05;;;14.80;58.80;;;;;;4992554;28;20208;-44
2022/07/08 04:08:42;;;;;;;2.50;1.83;;;14.90;58.70;;;;;;4981056;28;20194;-44
2022/07/08 04:11:13;;;;;;;2.42;2.05;;;14.80;58.70;;;;;;4973461;28;20194;-45
2022/07/08 04:13:43;;;;;;;2.40;2.03;;;14.80;58.70;;;;;;4973162;28;20218;-44
2022/07/08 04:16:14;;;;;;;2.42;1.90;;;14.90;58.70;;;;;;4972268;28;20206;-44
2022/07/08 04:18:45;;;;;;;2.55;1.90;;;14.90;58.70;;;;;;4955318;28;20289;-44
2022/07/08 04:21:16;;;;;;;2.88;2.30;;;14.90;58.80;;;;;;4955885;28;20206;-44
2022/07/08 04:23:49;;;;;;;2.30;2.05;;;14.90;58.80;;;;;;4953412;28;20223;-45
2022/07/08 04:26:19;;;;;;;2.88;2.15;;;14.90;59.40;;;;;;4953226;28;20199;-46
2022/07/08 04:28:50;;;;;;;2.50;1.95;;;14.90;58.90;;;;;;4953547;28;20208;-45
2022/07/08 04:31:21;;;;;;;3.10;2.03;;;14.90;58.90;;;;;;4953247;28;20205;-45
2022/07/08 04:33:53;;;;;;;3.83;2.38;;;14.90;59.00;;;;;;4972499;28;20305;-45
2022/07/08 04:36:24;;;;;;;2.45;2.20;;;14.90;59.10;;;;;;4972912;28;20206;-46
2022/07/08 04:38:56;;;;;;;2.20;2.00;;;14.90;59.10;;;;;;4972887;28;20229;-45
2022/07/08 04:41:27;;;;;;;3.33;2.30;;;14.90;59.10;;;;;;4962138;28;20210;-45
2022/07/08 04:43:58;;;;;;;2.17;1.98;;;14.90;59.20;;;;;;4967152;28;20198;-45
2022/07/08 04:46:28;;;;;;;2.42;2.15;;;14.90;59.10;;;;;;4972070;28;20214;-44
2022/07/08 04:48:59;;;;;;;3.03;2.20;;;14.90;59.00;;;;;;4953413;28;20207;-46
2022/07/08 04:51:30;;;;;;;2.67;2.25;;;15.00;59.00;;;;;;4977070;28;20726;-44
2022/07/08 04:54:03;;;;;;;3.35;2.15;;;14.90;59.00;;;;;;4979886;28;20581;-45
2022/07/08 04:56:34;;;;;;;2.40;2.05;;;15.00;58.90;;;;;;4973626;28;20194;-45
2022/07/08 04:59:04;;;;;;;2.85;2.13;;;15.00;59.00;;;;;;4965580;28;20705;-44
2022/07/08 05:01:35;;;;;;;2.85;2.15;;;15.00;59.00;;;;;;4977605;28;20201;-46
2022/07/08 05:04:06;;;;;;;2.35;2.15;;;15.00;59.00;;;;;;4991283;28;20197;-45
2022/07/08 05:06:37;;;;;;;2.78;2.25;;;15.00;59.00;;;;;;4991333;28;20567;-44
2022/07/08 05:09:10;;;;;;;2.03;1.90;;;15.00;59.00;;;;;;4991493;28;20205;-44
2022/07/08 05:11:40;;;;;;;2.80;1.90;;;15.00;59.10;;;;;;4983703;28;20202;-45
2022/07/08 05:14:13;;;;;;;3.00;2.00;;;15.00;59.30;;;;;;4973200;28;20584;-45
2022/07/08 05:16:44;;;;;;;2.65;2.00;;;15.00;59.30;;;;;;4982060;28;20666;-44
2022/07/08 05:19:14;;;;;;;2.45;2.10;;;15.00;59.30;;;;;;4989938;28;20681;-44
2022/07/08 05:21:45;;;;;;;2.92;2.45;;;15.00;59.40;;;;;;4991771;28;20193;-46
2022/07/08 05:24:18;;;;;;;2.85;2.00;;;15.00;59.40;;;;;;4992755;28;20206;-46
2022/07/08 05:26:49;;;;;;;2.72;2.00;;;15.00;59.40;;;;;;4995252;28;20563;-46
2022/07/08 05:29:19;;;;;;;2.08;1.80;;;15.00;59.40;;;;;;4994891;28;20201;-45
2022/07/08 05:31:53;;;;;;;1.70;1.60;;;15.00;59.30;;;;;;4994604;28;20219;-46
2022/07/08 05:34:24;;;;;;;2.55;1.98;;;15.00;59.30;;;;;;4995549;28;20197;-45
2022/07/08 05:36:55;;;;;;;2.55;2.00;;;15.00;59.20;;;;;;4990645;28;20208;-44
2022/07/08 05:39:28;;;;;;;2.55;2.00;;;15.00;59.20;;;;;;4995121;28;20269;-45
2022/07/08 05:41:59;;;;;;;1.95;1.67;;;15.00;59.20;;;;;;4994158;28;20575;-45
2022/07/08 05:44:29;;;;;;;3.50;2.00;;;15.00;59.20;;;;;;4994638;28;20194;-46
2022/07/08 05:47:00;;;;;;;2.58;2.22;;;15.00;59.20;;;;;;4986789;28;20210;-45
2022/07/08 05:49:31;;;;;;;2.83;2.10;;;15.10;59.30;;;;;;4955679;28;20218;-44
2022/07/08 05:52:01;;;;;;;3.20;2.38;;;15.00;59.30;;;;;;4981842;28;20240;-46
2022/07/08 05:54:34;;;;;;;2.28;2.08;;;15.00;59.20;;;;;;4991578;28;20204;-45
2022/07/08 05:57:05;;;;;;;3.03;2.30;;;15.00;59.30;;;;;;4967147;28;20199;-44
2022/07/08 05:59:35;;;;;;;2.42;2.13;;;15.10;59.30;;;;;;4956078;28;20226;-46
2022/07/08 06:02:06;;;;;;;3.08;2.33;;;15.10;59.30;;;;;;4981898;28;20264;-44
2022/07/08 06:04:37;;;;;;;2.97;2.38;;;15.00;59.30;;;;;;4994358;28;20213;-44
2022/07/08 06:07:08;;;;;;;2.78;2.25;;;15.00;59.30;;;;;;4994794;28;20551;-46
2022/07/08 06:09:40;;;;;;;2.53;2.08;;;15.00;59.40;;;;;;4994474;28;20763;-45
2022/07/08 06:12:12;;;;;;;3.35;2.45;;;15.00;59.40;;;;;;4993946;28;20220;-45
2022/07/08 06:14:43;;;;;;;2.63;2.15;;;15.00;59.40;;;;;;4973243;28;20198;-46
2022/07/08 06:17:13;;;;;;;2.33;2.13;;;15.00;59.40;;;;;;4970754;28;20203;-44
2022/07/08 06:19:44;;;;;;;2.72;2.40;;;15.00;59.30;;;;;;4954769;28;20585;-45
2022/07/08 06:22:15;;;;;;;2.40;2.20;;;15.00;59.40;;;;;;4982288;28;20265;-43
2022/07/08 06:24:47;;;;;;;2.72;2.42;;;15.00;59.40;;;;;;4994439;28;20225;-44
2022/07/08 06:27:18;;;;;;;2.10;1.90;;;15.10;59.40;;;;;;4993373;28;20673;-44
2022/07/08 06:29:49;;;;;;;2.45;2.25;;;15.00;59.40;;;;;;4994495;28;20201;-44
2022/07/08 06:32:19;;;;;;;3.42;2.33;;;15.10;59.30;;;;;;4993703;28;20221;-45
2022/07/08 06:34:50;;;;;;;2.70;2.30;;;15.10;60.00;;;;;;4993848;28;20201;-45
2022/07/08 06:37:21;;;;;;;2.40;2.20;;;15.10;59.40;;;;;;4987670;28;20198;-46
2022/07/08 06:39:54;;;;;;;2.50;2.10;;;15.10;59.40;;;;;;4994231;28;20576;-44
2022/07/08 06:42:24;;;;;;;3.38;2.30;;;15.00;59.30;;;;;;4993588;28;20217;-44
2022/07/08 06:44:55;;;;;;;3.28;2.30;;;15.10;59.40;;;;;;4993739;28;20201;-45
2022/07/08 06:47:26;;;;;;;4.15;2.35;;;15.10;59.40;;;;;;4979601;28;20664;-44
2022/07/08 06:49:57;;;;;;;2.45;2.25;;;15.00;59.40;;;;;;4955343;28;20199;-45
2022/07/08 06:52:27;;;;;;;2.47;2.03;;;15.00;59.40;;;;;;4980988;28;20221;-43
2022/07/08 06:55:00;;;;;;;2.50;2.30;;;15.00;59.50;;;;;;4963749;28;20199;-44
2022/07/08 06:57:31;;;;;;;3.20;2.30;;;15.00;59.50;;;;;;4981650;28;20192;-44
2022/07/08 07:00:01;;;;;;;3.35;2.40;;;15.00;59.40;;;;;;4993341;28;20221;-45
2022/07/08 07:02:32;;;;;;;2.50;2.30;;;15.00;59.50;;;;;;4993398;28;20221;-44
2022/07/08 07:05:03;;;;;;;2.60;2.40;;;15.00;59.50;;;;;;4993145;28;20194;-44
2022/07/08 07:07:33;;;;;;;2.42;2.13;;;15.00;59.50;;;;;;4992605;28;20202;-43
2022/07/08 07:10:06;;;;;;;2.67;2.10;;;15.00;59.40;;;;;;4992191;28;20217;-44
2022/07/08 07:12:37;;;;;;;2.20;2.00;;;15.00;59.40;;;;;;4993942;28;20217;-44
2022/07/08 07:15:09;;;;;;;2.80;2.20;;;15.00;59.40;;;;;;4992306;28;20197;-46
2022/07/08 07:17:42;;;;;;;2.65;2.22;;;15.00;59.40;;;;;;4975577;28;20206;-45
2022/07/08 07:20:14;;;;;;;2.50;2.30;;;15.00;59.40;;;;;;4954850;28;20862;-45
2022/07/08 07:22:46;;;;;;;2.70;2.50;;;15.00;59.40;;;;;;4954982;28;20230;-45
2022/07/08 07:25:18;;;;;;;2.67;2.33;;;15.00;59.40;;;;;;4954545;28;20209;-46
2022/07/08 07:27:49;;;;;;;2.72;2.53;;;15.00;59.40;;;;;;4954458;28;20214;-44
2022/07/08 07:30:22;;;;;;;2.63;2.40;;;15.00;59.40;;;;;;4954536;28;20659;-44
2022/07/08 07:32:52;;;;;;;2.65;2.45;;;15.00;59.40;;;;;;4954207;28;20223;-45
2022/07/08 07:35:23;;;;;;;2.40;2.20;;;15.00;59.40;;;;;;4954525;28;20246;-44
2022/07/08 07:37:54;;;;;;;2.67;2.22;;;15.00;59.50;;;;;;4954102;28;20570;-45
2022/07/08 07:40:26;;;;;;;2.72;2.30;;;15.00;59.50;;;;;;4953680;28;20198;-45
2022/07/08 07:42:57;;;;;;;3.47;2.42;;;15.00;59.40;;;;;;4953704;28;20219;-44
2022/07/08 07:45:28;;;;;;;2.40;2.13;;;15.00;59.50;;;;;;4953857;28;20206;-43
2022/07/08 07:47:58;;;;;;;3.80;2.38;;;15.00;60.10;;;;;;4958393;28;20203;-44
2022/07/08 07:50:29;;;;;;;2.40;2.20;;;15.00;59.50;;;;;;4954417;28;20658;-44
2022/07/08 07:53:00;;;;;;;3.00;2.22;;;15.00;59.50;;;;;;4954257;28;20297;-44
2022/07/08 07:55:33;;;;;;;2.50;2.17;;;15.00;59.50;;;;;;4954262;28;20210;-44
2022/07/08 07:58:03;;;;;;;2.92;2.20;;;15.00;59.50;;;;;;4954330;28;20206;-46
2022/07/08 08:00:34;;;;;;;2.60;1.98;;;15.00;59.50;;;;;;4954742;28;20606;-45
2022/07/08 08:03:05;;;;;;;2.33;2.13;;;15.00;59.50;;;;;;4969774;28;20222;-43
2022/07/08 08:05:36;;;;;;;2.70;2.30;;;15.00;59.50;;;;;;4973220;28;20202;-44
2022/07/08 08:08:06;;;;;;;2.67;2.33;;;15.00;59.50;;;;;;4953744;28;20210;-44
2022/07/08 08:10:39;;;;;;;2.70;2.50;;;15.00;59.40;;;;;;4972658;28;20601;-44
2022/07/08 08:13:11;;;;;;;2.38;2.17;;;15.00;59.50;;;;;;4973538;28;20221;-49
2022/07/08 08:15:42;;;;;;;2.55;2.35;;;15.00;59.50;;;;;;4972745;28;20662;-45
2022/07/08 08:18:12;;;;;;;2.25;2.05;;;15.00;59.50;;;;;;4958848;28;20198;-45
2022/07/08 08:20:44;;;;;;;3.03;2.67;;;15.00;59.50;;;;;;4954023;28;20206;-44
2022/07/08 08:23:16;;;;;;;2.42;2.22;;;15.00;59.50;;;;;;4955746;28;20217;-45
2022/07/08 08:25:48;;;;;;;2.88;2.40;;;15.00;59.50;;;;;;4953527;28;20194;-45
2022/07/08 08:28:19;;;;;;;2.45;2.25;;;14.90;59.50;;;;;;4953800;28;20202;-44
2022/07/08 08:30:50;;;;;;;2.63;2.22;;;14.90;59.50;;;;;;4953805;28;20678;-43
2022/07/08 08:33:20;;;;;;;2.60;2.40;;;14.90;59.50;;;;;;4970185;28;20236;-46
2022/07/08 08:35:51;;;;;;;2.50;2.30;;;14.90;59.60;;;;;;4973078;28;20209;-44
2022/07/08 08:38:22;;;;;;;2.83;2.28;;;14.90;59.60;;;;;;4972959;28;20564;-45
2022/07/08 08:41:00;;;;;;;2.50;2.30;;;14.90;59.60;;;;;;4972702;28;20202;-44
2022/07/08 08:43:31;;;;;;;2.70;2.50;;;14.90;59.60;;;;;;4972471;28;20269;-44
2022/07/08 08:46:03;;;;;;;2.90;2.60;;;15.00;59.60;;;;;;4972643;28;20209;-45
2022/07/08 08:48:38;;;;;;;2.40;2.20;;;14.90;59.60;;;;;;4953930;28;20213;-45
2022/07/08 08:51:11;;;;;;;2.20;2.00;;;14.90;59.60;;;;;;4953512;28;20198;-44
2022/07/08 08:53:45;;;;;;;2.20;2.00;;;14.90;59.50;;;;;;4953261;28;20233;-44
2022/07/08 08:56:18;;;;;;;2.45;2.25;;;14.90;59.60;;;;;;4953450;28;20697;-44
2022/07/08 08:58:51;;;;;;;2.53;2.33;;;14.90;59.60;;;;;;4961636;28;20222;-44
2022/07/08 09:01:22;;;;;;;2.50;2.30;;;14.90;59.60;;;;;;4976569;28;20198;-44
2022/07/08 09:03:53;;;;;;;2.83;2.58;;;14.90;59.60;;;;;;4957034;28;20223;-46
2022/07/08 09:06:23;;;;;;;2.92;2.55;;;14.90;59.60;;;;;;4969774;28;20665;-45
2022/07/08 09:08:54;;;;;;;2.80;2.50;;;14.90;59.60;;;;;;4995928;28;20217;-45
2022/07/08 09:11:26;;;;;;;2.50;2.30;;;14.80;59.60;;;;;;4996087;28;20205;-45
2022/07/08 09:14:16;;;;;;;2.50;2.30;;;14.80;59.60;;;;;;4996481;28;20197;-45
2022/07/08 09:17:10;;;;;;;3.40;2.38;;;14.90;59.60;;;;;;4990828;28;20229;-44
2022/07/08 09:19:43;;;;;;;2.40;2.10;;;14.80;59.60;;;;;;4956970;28;20277;-44
2022/07/08 09:22:14;;;;;;;2.72;2.45;;;14.80;59.60;;;;;;4956799;28;20222;-43
2022/07/08 09:24:46;;;;;;;2.42;2.22;;;14.90;59.60;;;;;;4956683;28;20227;-45
2022/07/08 09:27:19;;;;;;;2.40;2.20;;;14.80;59.60;;;;;;4956861;28;20206;-45
2022/07/08 09:30:03;;;;;;;2.83;2.50;;;14.80;59.60;;;;;;4956952;28;20195;-44
2022/07/08 09:32:34;;;;;;;3.13;2.83;;;14.80;59.60;;;;;;4963982;28;20218;-45
2022/07/08 09:35:13;;;;;;;2.88;2.47;;;14.80;59.60;;;;;;4975967;28;20210;-44
2022/07/08 09:37:45;;;;;;;3.35;2.70;;;14.80;59.50;;;;;;4976131;28;20201;-44
2022/07/08 09:40:21;;;;;;;2.40;2.20;;;14.80;59.70;;;;;;4975723;28;20226;-43
2022/07/08 09:42:54;;;;;;;2.75;2.50;;;14.80;59.90;;;;;;4975843;28;20224;-44
2022/07/08 09:45:30;;;;;;;2.80;2.42;;;14.80;59.90;;;;;;4970019;28;20214;-45
2022/07/08 09:48:10;;;;;;;2.83;2.47;;;14.80;59.90;;;;;;4963917;28;20211;-46
2022/07/08 09:50:42;;;;;;;3.08;2.65;;;14.80;59.90;;;;;;4970497;28;20198;-43
2022/07/08 09:53:21;;;;;;;2.50;2.30;;;14.80;59.80;;;;;;4975867;28;20214;-43
2022/07/08 09:55:53;;;;;;;3.00;2.70;;;14.70;59.70;;;;;;4982822;28;20194;-44
2022/07/08 09:58:27;;;;;;;2.97;2.60;;;14.70;59.80;;;;;;4994902;28;20240;-44
2022/07/08 10:01:00;;;;;;;2.95;2.67;;;14.70;59.80;;;;;;4994566;28;20193;-45
2022/07/08 10:03:32;;;;;;;3.10;2.72;;;14.70;59.80;;;;;;4990983;28;20293;-44
2022/07/08 10:06:03;;;;;;;3.35;3.05;;;14.70;59.90;;;;;;4982614;28;20232;-45
2022/07/08 10:08:35;;;;;;;4.15;3.08;;;14.70;59.80;;;;;;4993999;28;20209;-43
2022/07/08 10:11:09;;;;;;;3.67;3.38;;;14.70;59.80;;;;;;4993852;28;20206;-44
2022/07/08 10:13:44;;;;;;;3.40;2.90;;;14.70;59.80;;;;;;4981199;28;20574;-45
2022/07/08 10:16:16;;;;;;;3.63;3.33;;;14.70;59.70;;;;;;4985197;28;20193;-44
2022/07/08 10:18:51;;;;;;;3.97;3.58;;;14.70;59.70;;;;;;4958535;28;20206;-45
2022/07/08 10:21:26;;;;;;;3.92;3.53;;;14.70;59.70;;;;;;4977253;28;20204;-45
2022/07/08 10:23:58;;;;;;;3.70;3.40;;;14.70;59.70;;;;;;4993983;28;20197;-44
2022/07/08 10:26:32;;;;;;;3.55;3.25;;;14.70;59.70;;;;;;4993962;28;20277;-45
2022/07/08 10:29:08;;;;;;;3.65;3.30;;;14.60;59.70;;;;;;4984256;28;20563;-44
2022/07/08 10:31:47;;;;;;;3.63;3.10;;;14.60;59.70;;;;;;4980515;28;20193;-45
2022/07/08 10:34:22;;;;;;;3.95;3.08;;;14.60;59.60;;;;;;4993080;28;20197;-44
2022/07/08 10:36:54;;;;;;;4.30;3.53;;;14.60;59.60;;;;;;4993191;28;20197;-44
2022/07/08 10:39:29;;;;;;;4.05;3.25;;;14.60;59.70;;;;;;4993758;28;20213;-45
2022/07/08 10:42:01;;;;;;;4.13;3.58;;;14.60;59.60;;;;;;4989523;28;20232;-44
2022/07/08 10:45:00;;;;;;;3.42;3.13;;;14.60;59.70;;;;;;4993171;28;20205;-44
2022/07/08 10:47:32;;;;;;;4.95;3.78;;;14.60;59.60;;;;;;4954738;28;20659;-44
2022/07/08 10:50:10;;;;;;;3.95;3.55;;;14.60;59.70;;;;;;4953918;28;20199;-44
2022/07/08 10:52:44;;;;;;;4.18;3.67;;;14.60;59.60;;;;;;4954615;28;20214;-44
2022/07/08 10:55:16;;;;;;;6.00;4.05;;;14.60;59.60;;;;;;4954890;28;20239;-45
2022/07/08 10:57:59;;;;;;;5.10;4.07;;;14.50;59.50;;;;;;4959854;28;20222;-46
2022/07/08 11:00:35;;;;;;;4.75;4.25;;;14.50;59.60;;;;;;4958822;28;20234;-44
2022/07/08 11:03:10;;;;;;;4.70;4.05;;;14.50;59.50;;;;;;4993546;28;20260;-46
2022/07/08 11:05:42;;;;;;;6.03;4.13;;;14.50;59.50;;;;;;4993542;28;20749;-45
2022/07/08 11:08:28;;;;;;;4.75;4.05;;;14.50;59.50;;;;;;4993831;28;20198;-45
2022/07/08 11:10:59;;;;;;;5.40;4.43;;;14.50;59.50;;;;;;4992634;28;20730;-44
2022/07/08 11:13:30;;;;;;;5.65;4.55;;;14.50;59.50;;;;;;4993532;28;20218;-45
2022/07/08 11:16:05;;;;;;;4.80;4.20;;;14.50;59.50;;;;;;4992555;28;20202;-44
2022/07/08 11:18:36;;;;;;;6.30;5.03;;;14.50;59.50;;;;;;4960424;28;20206;-44
2022/07/08 11:21:07;;;;;;;6.00;4.65;;;14.50;59.50;;;;;;4964528;28;20694;-44
2022/07/08 11:23:37;;;;;;;5.07;4.30;;;14.50;59.50;;;;;;4993228;28;20217;-44
2022/07/08 11:26:08;;;;;;;5.47;4.60;;;14.50;59.60;;;;;;4992812;28;20201;-44
2022/07/08 11:28:40;;;;;;;6.10;4.90;;;14.50;59.50;;;;;;4993637;28;20212;-43
2022/07/08 11:31:27;;;;;;;5.95;4.80;;;14.50;59.50;;;;;;4991909;28;20202;-44
2022/07/08 11:33:58;;;;;;;7.10;4.63;;;14.40;59.50;;;;;;4992083;28;20204;-45
2022/07/08 11:36:29;;;;;;;7.28;5.28;;;14.50;59.60;;;;;;4992496;28;20657;-43
2022/07/08 11:39:06;;;;;;;6.22;4.97;;;14.50;59.50;;;;;;4992016;28;20201;-44
2022/07/08 11:41:43;;;;;;;6.18;5.18;;;14.40;59.50;;;;;;4985015;28;20194;-45
2022/07/08 11:44:18;;;;;;;5.18;4.55;;;14.50;59.50;;;;;;4992549;28;20225;-44
2022/07/08 11:46:53;;;;;;;6.60;5.07;;;14.40;59.50;;;;;;4987776;28;20225;-43
2022/07/08 11:49:24;;;;;;;6.00;5.07;;;14.50;59.50;;;;;;4953303;28;20206;-45
2022/07/08 11:51:56;;;;;;;7.28;6.03;;;14.40;59.40;;;;;;4974997;28;20217;-45
2022/07/08 11:54:27;;;;;;;6.65;5.07;;;14.40;59.40;;;;;;4991921;28;20197;-44
2022/07/08 11:56:59;;;;;;;6.47;5.60;;;14.40;59.40;;;;;;4992890;28;20569;-45
2022/07/08 11:59:30;;;;;;;6.05;5.20;;;14.40;59.50;;;;;;4991342;28;20225;-44
2022/07/08 12:02:05;;;;;;;6.88;5.55;;;14.40;59.50;;;;;;4991846;28;20229;-45
2022/07/08 12:04:36;;;;;;;6.32;5.20;;;14.40;59.50;;;;;;4991938;28;20237;-43
2022/07/08 12:07:22;;;;;;;6.18;5.55;;;14.40;59.50;;;;;;4991845;28;20284;-44
2022/07/08 12:10:00;;;;;;;6.38;5.32;;;14.40;59.50;;;;;;4992741;28;20205;-44
2022/07/08 12:12:34;;;;;;;6.20;5.55;;;14.30;59.40;;;;;;4992255;28;20220;-45
2022/07/08 12:15:14;;;;;;;6.80;5.65;;;14.40;59.50;;;;;;4978816;28;20190;-43
2022/07/08 12:17:58;;;;;;;6.20;5.60;;;14.30;59.40;;;;;;4962079;28;20216;-42
2022/07/08 12:20:35;;;;;;;5.78;5.18;;;14.30;59.50;;;;;;4952338;28;20660;-44
2022/07/08 12:23:08;;;;;;;5.60;5.10;;;14.40;59.50;;;;;;4967573;28;20217;-44
2022/07/08 12:25:53;;;;;;;5.85;5.25;;;14.40;59.50;;;;;;4971478;28;20212;-45
2022/07/08 12:28:27;;;;;;;7.20;5.07;;;14.30;59.40;;;;;;4971381;28;20201;-44
2022/07/08 12:30:57;;;;;;;6.30;5.20;;;14.40;59.50;;;;;;4968465;28;20639;-44
2022/07/08 12:33:32;;;;;;;6.88;5.10;;;14.30;59.40;;;;;;4971000;28;20222;-44
2022/07/08 12:36:05;;;;;;;5.35;4.85;;;14.40;59.50;;;;;;4971174;28;20194;-44
2022/07/08 12:38:36;;;;;;;6.65;4.95;;;14.30;59.50;;;;;;4952653;28;20225;-43
2022/07/08 12:41:20;;;;;;;6.18;4.80;;;14.40;59.60;;;;;;4952153;28;20234;-44
2022/07/08 12:43:51;;;;;;;6.43;5.63;;;14.30;59.40;;;;;;4952232;28;20830;-44
2022/07/08 12:46:21;;;;;;;5.40;4.63;;;14.30;59.40;;;;;;4952069;28;20199;-44
2022/07/08 12:48:56;;;;;;;5.93;4.75;;;14.30;59.50;;;;;;4970719;28;20685;-43
2022/07/08 12:51:27;;;;;;;6.03;4.47;;;14.30;59.50;;;;;;4958722;28;20217;-43
2022/07/08 12:53:57;;;;;;;5.15;4.57;;;14.30;59.40;;;;;;4971419;28;20198;-44
2022/07/08 12:56:28;;;;;;;7.05;5.05;;;14.30;59.50;;;;;;4970984;28;20214;-45
2022/07/08 12:58:59;;;;;;;6.40;4.75;;;14.30;59.50;;;;;;4971037;28;20198;-44
2022/07/08 13:01:29;;;;;;;5.43;4.78;;;14.30;59.50;;;;;;4971142;28;20861;-43
2022/07/08 13:04:02;;;;;;;5.07;4.35;;;14.30;59.50;;;;;;4970672;28;20190;-44
2022/07/08 13:06:33;;;;;;;4.75;4.25;;;14.30;59.50;;;;;;4976092;28;20196;-43
2022/07/08 13:09:04;;;;;;;5.78;4.15;;;14.30;59.50;;;;;;4970481;28;20627;-44
2022/07/08 13:11:35;;;;;;;6.80;4.63;;;14.30;59.50;;;;;;4970638;28;20674;-45
2022/07/08 13:14:05;;;;;;;6.00;4.60;;;14.30;59.50;;;;;;4971767;28;20198;-44
2022/07/08 13:16:36;;;;;;;5.80;4.40;;;14.30;59.50;;;;;;4971074;28;20206;-44